Arapaho, Oklahoma
Current Conditions -  °F | °C
As of 3:35 PM on Friday 28 Nov 2014 (Local Time) from KCLK Reporting Station
Clear Clear  
Wind Chill: 19°   Ceiling: Unl
Heat Index: 19°   Visibility: 10mi
Dew Point:   Wind: 20mph
Humidity: 28%   Direction: 190°S
Pressure: 29.88"   Gusts: 23mph
Location:  35.58°N, 98.96°W
Report Text: KCLK 282135Z AUTO 19017G20KT 10SM CLR 19/00 A2988 RMK AO2
Loading
Personal Weather Stations






























Interactive Weather Map New forecast layout! Learn more

10-Day Weather Forecast

Advertisements
Track Severe Weather on mobile